Time;durP1;ratioP1;P1;durP2;ratioP2;P2;SDS_P1;SDS_P2;PMS_P1;PMS_P2;Temp;Humidity;BMP_temperature;BMP_pressure;BME280_temperature;BME280_humidity;BME280_pressure;Samples;Min_cycle;Max_cycle;Signal;HPM_P1;HPM_P2
2023/04/09 00:01:07;;;;;;;11.52;8.50;;;;;;;;;;10141190;28;20580;-65
2023/04/09 00:06:00;;;;;;;14.80;9.57;;;;;;;;;;10144211;28;20070;-65
2023/04/09 00:10:54;;;;;;;10.45;9.35;;;;;;;;;;10149172;28;20115;-65
2023/04/09 00:15:47;;;;;;;9.48;8.55;;;;;;;;;;10148947;28;20076;-65
2023/04/09 00:20:41;;;;;;;9.18;8.27;;;;;;;;;;10134939;28;20439;-65
2023/04/09 00:25:35;;;;;;;9.63;8.73;;;;;;;;;;10150810;28;20044;-65
2023/04/09 00:30:28;;;;;;;9.82;8.93;;;;;;;;;;10158068;28;20048;-65
2023/04/09 00:35:21;;;;;;;11.10;9.40;;;;;;;;;;10141155;28;20060;-65
2023/04/09 00:40:14;;;;;;;11.50;10.38;;;;;;;;;;10140620;28;20477;-65
2023/04/09 00:45:07;;;;;;;13.25;10.95;;;;;;;;;;10151411;28;20041;-65
2023/04/09 00:50:00;;;;;;;14.20;11.73;;;;;;;;;;10116598;28;20114;-65
2023/04/09 00:54:53;;;;;;;11.63;10.35;;;;;;;;;;10144113;28;20052;-65
2023/04/09 00:59:46;;;;;;;13.02;11.65;;;;;;;;;;10140928;28;20105;-65
2023/04/09 01:04:41;;;;;;;11.13;9.77;;;;;;;;;;10147007;28;20511;-65
2023/04/09 01:09:38;;;;;;;11.30;10.13;;;;;;;;;;10146994;28;20123;-64
2023/04/09 01:14:44;;;;;;;12.05;10.85;;;;;;;;;;10128776;28;20080;-65
2023/04/09 01:19:48;;;;;;;11.70;10.55;;;;;;;;;;10129095;28;20054;-65
2023/04/09 01:24:55;;;;;;;14.82;11.00;;;;;;;;;;10112740;28;20055;-64
2023/04/09 01:29:56;;;;;;;11.85;10.80;;;;;;;;;;10118716;28;20052;-64
2023/04/09 01:34:50;;;;;;;11.32;10.23;;;;;;;;;;10128581;28;20048;-65
2023/04/09 01:39:43;;;;;;;10.93;9.90;;;;;;;;;;10121067;28;20055;-65
2023/04/09 01:44:37;;;;;;;11.43;9.50;;;;;;;;;;10116985;28;20068;-65
2023/04/09 01:49:32;;;;;;;12.25;10.15;;;;;;;;;;10110473;28;20060;-65
2023/04/09 01:54:25;;;;;;;15.05;11.15;;;;;;;;;;10114534;28;20056;-64
2023/04/09 01:59:18;;;;;;;13.15;10.90;;;;;;;;;;10145050;28;20041;-65
2023/04/09 02:04:33;;;;;;;12.02;10.80;;;;;;;;;;10126744;28;20623;-65
2023/04/09 02:09:29;;;;;;;14.88;11.43;;;;;;;;;;10126630;28;20520;-65
2023/04/09 02:14:24;;;;;;;12.70;10.00;;;;;;;;;;10110878;28;20055;-65
2023/04/09 02:19:16;;;;;;;12.23;10.95;;;;;;;;;;10118298;28;20135;-65
2023/04/09 02:24:09;;;;;;;12.77;11.43;;;;;;;;;;10126937;28;20041;-65
2023/04/09 02:29:02;;;;;;;13.55;11.57;;;;;;;;;;10126718;28;20091;-65
2023/04/09 02:33:55;;;;;;;11.85;10.02;;;;;;;;;;10121230;28;20076;-65
2023/04/09 02:38:48;;;;;;;11.57;10.48;;;;;;;;;;10140011;28;20072;-65
2023/04/09 02:43:44;;;;;;;13.63;11.10;;;;;;;;;;10131603;28;20144;-65
2023/04/09 02:48:37;;;;;;;10.52;9.52;;;;;;;;;;10123475;28;20502;-65
2023/04/09 02:53:32;;;;;;;15.90;10.55;;;;;;;;;;10126813;28;20056;-66
2023/04/09 02:58:26;;;;;;;11.02;9.90;;;;;;;;;;10125489;28;20504;-66
2023/04/09 03:03:19;;;;;;;14.10;12.13;;;;;;;;;;10125204;28;20121;-65
2023/04/09 03:08:11;;;;;;;12.35;11.02;;;;;;;;;;10147662;28;20132;-65
2023/04/09 03:13:05;;;;;;;13.07;11.73;;;;;;;;;;10121126;28;20048;-65
2023/04/09 03:17:58;;;;;;;14.93;13.13;;;;;;;;;;10148415;28;20044;-65
2023/04/09 03:22:51;;;;;;;14.80;13.30;;;;;;;;;;10150140;28;20045;-65
2023/04/09 03:27:53;;;;;;;15.07;12.68;;;;;;;;;;10125585;28;20098;-65
2023/04/09 03:32:58;;;;;;;16.83;11.98;;;;;;;;;;10124656;28;20040;-65
2023/04/09 03:37:55;;;;;;;13.48;12.18;;;;;;;;;;10127801;28;20139;-65
2023/04/09 03:42:48;;;;;;;17.38;11.68;;;;;;;;;;10125684;28;20067;-65
2023/04/09 03:47:41;;;;;;;16.73;11.93;;;;;;;;;;10135305;28;20160;-67
2023/04/09 03:52:35;;;;;;;13.00;11.00;;;;;;;;;;10136351;28;20056;-67
2023/04/09 03:57:32;;;;;;;11.63;10.43;;;;;;;;;;10132616;28;20056;-66
2023/04/09 04:02:32;;;;;;;14.65;11.00;;;;;;;;;;10136414;28;20109;-66
2023/04/09 04:07:29;;;;;;;10.95;9.85;;;;;;;;;;10136025;28;20044;-66
2023/04/09 04:12:27;;;;;;;12.17;11.07;;;;;;;;;;10123397;28;20048;-66
2023/04/09 04:17:36;;;;;;;13.55;11.45;;;;;;;;;;10148132;28;20090;-66
2023/04/09 04:22:36;;;;;;;11.98;10.70;;;;;;;;;;10128886;28;20074;-66
2023/04/09 04:27:29;;;;;;;14.70;11.65;;;;;;;;;;10130684;28;20050;-67
2023/04/09 04:32:22;;;;;;;11.50;10.32;;;;;;;;;;10130181;28;20154;-67
2023/04/09 04:37:17;;;;;;;12.55;10.50;;;;;;;;;;10130331;28;20057;-66
2023/04/09 04:42:11;;;;;;;12.25;10.43;;;;;;;;;;10115766;28;20044;-67
2023/04/09 04:47:05;;;;;;;12.43;11.20;;;;;;;;;;10128857;28;20777;-66
2023/04/09 04:51:58;;;;;;;13.20;11.77;;;;;;;;;;10130114;28;20136;-67
2023/04/09 04:56:52;;;;;;;13.15;11.55;;;;;;;;;;10129539;28;20555;-67
2023/04/09 05:01:57;;;;;;;14.98;12.68;;;;;;;;;;10128694;28;20051;-67
2023/04/09 05:06:54;;;;;;;15.45;12.05;;;;;;;;;;10128448;28;20151;-66
2023/04/09 05:11:50;;;;;;;13.30;11.75;;;;;;;;;;10128820;28;20594;-66
2023/04/09 05:16:45;;;;;;;18.20;12.23;;;;;;;;;;10128650;28;20061;-67
2023/04/09 05:21:40;;;;;;;15.38;13.25;;;;;;;;;;10128172;28;20048;-67
2023/04/09 05:26:35;;;;;;;20.25;13.35;;;;;;;;;;10134415;28;20044;-67
2023/04/09 05:31:27;;;;;;;16.90;12.65;;;;;;;;;;10146165;28;20135;-67
2023/04/09 05:36:31;;;;;;;19.70;14.55;;;;;;;;;;10127696;28;20082;-67
2023/04/09 05:41:25;;;;;;;19.33;16.20;;;;;;;;;;10128840;28;20579;-66
2023/04/09 05:46:33;;;;;;;17.25;15.07;;;;;;;;;;10144679;28;20536;-66
2023/04/09 05:51:27;;;;;;;18.60;14.23;;;;;;;;;;10127380;28;20052;-67
2023/04/09 05:56:22;;;;;;;18.30;14.90;;;;;;;;;;10119305;28;20110;-67
2023/04/09 06:01:20;;;;;;;26.73;16.38;;;;;;;;;;10125484;28;20054;-67
2023/04/09 06:06:13;;;;;;;16.70;14.30;;;;;;;;;;10127381;28;20524;-67
2023/04/09 06:11:12;;;;;;;19.65;16.90;;;;;;;;;;10126323;28;20043;-67
2023/04/09 06:16:25;;;;;;;16.05;14.45;;;;;;;;;;10125812;28;20501;-66
2023/04/09 06:21:18;;;;;;;18.02;16.13;;;;;;;;;;10141217;28;20045;-67
2023/04/09 06:26:12;;;;;;;23.55;17.23;;;;;;;;;;10144983;28;20052;-67
2023/04/09 06:31:06;;;;;;;20.00;17.67;;;;;;;;;;10144412;28;20076;-66
2023/04/09 06:36:00;;;;;;;16.85;15.13;;;;;;;;;;10141670;28;20040;-67
2023/04/09 06:40:54;;;;;;;15.38;12.43;;;;;;;;;;10143393;28;20052;-66
2023/04/09 06:45:47;;;;;;;15.75;13.30;;;;;;;;;;10144481;28;20131;-66
2023/04/09 06:50:40;;;;;;;14.60;13.20;;;;;;;;;;10139568;28;20059;-67
2023/04/09 06:55:34;;;;;;;16.33;13.00;;;;;;;;;;10142516;28;20507;-66
2023/04/09 07:00:28;;;;;;;17.70;14.70;;;;;;;;;;10144674;28;20166;-67
2023/04/09 07:05:25;;;;;;;16.77;14.65;;;;;;;;;;10151121;28;20067;-67
2023/04/09 07:10:18;;;;;;;16.42;14.80;;;;;;;;;;10147261;28;20405;-67
2023/04/09 07:15:11;;;;;;;16.52;14.15;;;;;;;;;;10151785;28;20131;-67
2023/04/09 07:20:08;;;;;;;16.80;14.75;;;;;;;;;;10150734;28;20044;-68
2023/04/09 07:25:01;;;;;;;15.32;13.73;;;;;;;;;;10148999;28;20040;-67
2023/04/09 07:29:59;;;;;;;15.70;14.07;;;;;;;;;;10150064;28;20050;-65
2023/04/09 07:34:54;;;;;;;13.43;11.43;;;;;;;;;;10146853;28;20052;-63
2023/04/09 07:39:48;;;;;;;13.68;11.52;;;;;;;;;;10147240;28;20056;-65
2023/04/09 07:44:41;;;;;;;15.93;14.35;;;;;;;;;;10148121;28;20131;-65
2023/04/09 07:49:36;;;;;;;15.88;14.23;;;;;;;;;;10149714;28;20135;-65
2023/04/09 07:54:31;;;;;;;12.98;11.68;;;;;;;;;;10141748;28;20493;-65
2023/04/09 07:59:24;;;;;;;12.93;11.43;;;;;;;;;;10142518;28;20051;-64
2023/04/09 08:04:17;;;;;;;12.43;11.13;;;;;;;;;;10146041;28;20094;-64
2023/04/09 08:09:11;;;;;;;12.48;11.25;;;;;;;;;;10152761;28;20053;-62
2023/04/09 08:14:05;;;;;;;11.38;10.30;;;;;;;;;;10143696;28;20049;-64
2023/04/09 08:18:58;;;;;;;15.52;10.20;;;;;;;;;;10150997;28;20485;-64
2023/04/09 08:23:51;;;;;;;12.27;10.85;;;;;;;;;;10148974;28;20071;-63
2023/04/09 08:28:45;;;;;;;10.70;9.70;;;;;;;;;;10158725;28;20524;-64
2023/04/09 08:33:38;;;;;;;11.18;10.15;;;;;;;;;;10149127;28;20040;-64
2023/04/09 08:38:32;;;;;;;11.70;10.38;;;;;;;;;;10142721;28;20102;-65
2023/04/09 08:43:26;;;;;;;10.55;9.52;;;;;;;;;;10146537;28;20051;-65
2023/04/09 08:48:41;;;;;;;11.70;9.75;;;;;;;;;;10139989;28;20068;-65
2023/04/09 08:53:35;;;;;;;10.30;9.15;;;;;;;;;;10140154;28;20071;-64
2023/04/09 08:58:28;;;;;;;14.05;9.30;;;;;;;;;;10139783;28;20036;-64
2023/04/09 09:03:22;;;;;;;12.25;8.52;;;;;;;;;;10154355;28;20557;-65
2023/04/09 09:08:24;;;;;;;8.93;7.90;;;;;;;;;;10144653;28;20102;-66
2023/04/09 09:13:27;;;;;;;8.50;7.47;;;;;;;;;;10144760;28;20054;-66
2023/04/09 09:18:26;;;;;;;8.20;7.50;;;;;;;;;;10136502;28;20055;-66
2023/04/09 09:23:34;;;;;;;9.35;7.50;;;;;;;;;;10144516;28;20048;-65
2023/04/09 09:28:34;;;;;;;7.80;6.43;;;;;;;;;;10138682;28;20052;-66
2023/04/09 09:33:32;;;;;;;7.38;6.68;;;;;;;;;;10142704;28;20063;-66
2023/04/09 09:38:24;;;;;;;7.43;6.70;;;;;;;;;;10141335;28;20640;-64
2023/04/09 09:43:18;;;;;;;9.13;8.27;;;;;;;;;;10126441;28;20409;-67
2023/04/09 09:48:13;;;;;;;7.20;6.50;;;;;;;;;;10145868;28;20056;-65
2023/04/09 09:53:08;;;;;;;10.77;6.75;;;;;;;;;;10145533;28;20131;-64
2023/04/09 09:58:10;;;;;;;6.72;6.13;;;;;;;;;;10145338;28;20558;-64
2023/04/09 10:03:14;;;;;;;5.88;5.32;;;;;;;;;;10144016;28;20045;-65
2023/04/09 10:08:08;;;;;;;6.13;5.18;;;;;;;;;;10161827;28;20062;-66
2023/04/09 10:13:02;;;;;;;7.43;5.88;;;;;;;;;;10145528;28;20049;-67
2023/04/09 10:17:56;;;;;;;7.00;6.30;;;;;;;;;;10145075;28;20043;-67
2023/04/09 10:22:50;;;;;;;9.82;6.32;;;;;;;;;;10144905;28;20076;-67
2023/04/09 10:27:45;;;;;;;9.73;6.60;;;;;;;;;;10141512;28;20068;-67
2023/04/09 10:32:38;;;;;;;6.38;5.78;;;;;;;;;;10140064;28;20444;-71
2023/04/09 10:37:35;;;;;;;8.88;6.78;;;;;;;;;;10119998;28;20057;-67
2023/04/09 10:42:35;;;;;;;8.32;5.75;;;;;;;;;;10142096;28;20055;-65
2023/04/09 10:47:32;;;;;;;6.28;5.28;;;;;;;;;;10122082;28;20075;-65
2023/04/09 10:52:30;;;;;;;7.03;6.13;;;;;;;;;;10142443;28;20721;-62
2023/04/09 10:57:23;;;;;;;6.60;5.10;;;;;;;;;;10151857;28;20044;-66
2023/04/09 11:02:28;;;;;;;5.53;4.95;;;;;;;;;;10139696;28;20157;-65
2023/04/09 11:07:23;;;;;;;10.35;6.90;;;;;;;;;;10139758;28;20036;-65
2023/04/09 11:12:16;;;;;;;11.02;9.43;;;;;;;;;;10133855;28;20509;-65
2023/04/09 11:17:10;;;;;;;12.85;10.27;;;;;;;;;;10142788;28;20083;-64
2023/04/09 11:22:06;;;;;;;6.75;6.05;;;;;;;;;;10126051;28;20037;-64
2023/04/09 11:27:00;;;;;;;8.23;7.30;;;;;;;;;;10143527;28;20409;-64
2023/04/09 11:31:54;;;;;;;7.00;5.95;;;;;;;;;;10150551;28;20110;-62
2023/04/09 11:36:51;;;;;;;37.78;26.95;;;;;;;;;;10150407;28;20128;-62
2023/04/09 11:41:45;;;;;;;34.97;30.92;;;;;;;;;;10148317;28;20397;-62
2023/04/09 11:46:37;;;;;;;5.60;5.10;;;;;;;;;;10147792;28;20060;-62
2023/04/09 11:51:31;;;;;;;5.50;5.00;;;;;;;;;;10132420;28;20052;-62
2023/04/09 11:56:28;;;;;;;14.23;10.93;;;;;;;;;;10150532;28;20080;-62
2023/04/09 12:01:21;;;;;;;29.38;24.42;;;;;;;;;;10149557;28;20048;-62
2023/04/09 12:06:14;;;;;;;8.50;7.68;;;;;;;;;;10149521;28;20044;-63
2023/04/09 12:11:28;;;;;;;5.70;5.10;;;;;;;;;;10149506;28;20443;-62
2023/04/09 12:16:22;;;;;;;7.45;6.75;;;;;;;;;;10148373;28;20052;-63
2023/04/09 12:21:16;;;;;;;5.95;5.32;;;;;;;;;;10147739;28;20095;-64
2023/04/09 12:26:11;;;;;;;5.13;4.63;;;;;;;;;;10149589;28;20598;-63
2023/04/09 12:31:08;;;;;;;4.85;4.00;;;;;;;;;;10148689;28;20072;-63
2023/04/09 12:36:02;;;;;;;6.95;4.50;;;;;;;;;;10144523;28;20467;-63
2023/04/09 12:40:56;;;;;;;5.13;3.83;;;;;;;;;;10139897;28;20058;-62
2023/04/09 12:45:51;;;;;;;8.77;4.82;;;;;;;;;;10147519;28;20109;-63
2023/04/09 12:50:45;;;;;;;4.93;3.63;;;;;;;;;;10148066;28;20036;-63
2023/04/09 12:55:38;;;;;;;3.80;3.20;;;;;;;;;;10148221;28;20123;-63
2023/04/09 13:00:34;;;;;;;6.33;4.10;;;;;;;;;;10147331;28;20060;-63
2023/04/09 13:05:30;;;;;;;3.22;2.92;;;;;;;;;;10147340;28;20075;-63
2023/04/09 13:10:22;;;;;;;3.17;2.70;;;;;;;;;;10146677;28;20044;-64
2023/04/09 13:15:15;;;;;;;2.90;2.70;;;;;;;;;;10146670;28;20148;-64
2023/04/09 13:20:09;;;;;;;2.70;2.42;;;;;;;;;;10146567;28;20032;-64
2023/04/09 13:25:03;;;;;;;3.30;2.33;;;;;;;;;;10146677;28;20110;-64
2023/04/09 13:29:57;;;;;;;2.08;1.88;;;;;;;;;;10146185;28;20048;-64
2023/04/09 13:34:49;;;;;;;2.38;2.15;;;;;;;;;;10146062;28;20459;-64
2023/04/09 13:39:43;;;;;;;2.95;2.22;;;;;;;;;;10146647;28;20073;-64
2023/04/09 13:44:36;;;;;;;2.75;2.15;;;;;;;;;;10146180;28;20056;-64
2023/04/09 13:49:30;;;;;;;3.22;2.47;;;;;;;;;;10145535;28;20135;-64
2023/04/09 13:54:23;;;;;;;1.92;1.83;;;;;;;;;;10146064;28;20048;-64
2023/04/09 13:59:19;;;;;;;3.80;2.00;;;;;;;;;;10145922;28;20060;-63
2023/04/09 14:04:13;;;;;;;3.65;2.25;;;;;;;;;;10145043;28;20091;-64
2023/04/09 14:09:07;;;;;;;2.95;2.00;;;;;;;;;;10145231;28;20071;-64
2023/04/09 14:14:01;;;;;;;2.88;1.98;;;;;;;;;;10145252;28;20052;-64
2023/04/09 14:19:14;;;;;;;1.77;1.67;;;;;;;;;;10145251;28;20055;-64
2023/04/09 14:24:07;;;;;;;2.95;1.90;;;;;;;;;;10144035;28;20106;-64
2023/04/09 14:29:01;;;;;;;2.00;1.90;;;;;;;;;;10144916;28;20095;-63
2023/04/09 14:33:55;;;;;;;2.47;2.17;;;;;;;;;;10144794;28;20044;-63
2023/04/09 14:38:49;;;;;;;2.33;2.13;;;;;;;;;;10144937;28;20463;-63
2023/04/09 14:43:44;;;;;;;1.88;1.75;;;;;;;;;;10144884;28;20489;-63
2023/04/09 14:48:41;;;;;;;1.90;1.80;;;;;;;;;;10144918;28;20088;-64
2023/04/09 14:53:36;;;;;;;3.30;1.88;;;;;;;;;;10144359;28;20057;-63
2023/04/09 14:58:29;;;;;;;2.63;2.20;;;;;;;;;;10138123;28;20044;-64
2023/04/09 15:03:23;;;;;;;1.85;1.65;;;;;;;;;;10146475;28;20051;-64
2023/04/09 15:08:17;;;;;;;3.83;1.95;;;;;;;;;;10150934;28;20059;-63
2023/04/09 15:13:10;;;;;;;2.22;2.03;;;;;;;;;;10150752;28;20127;-63
2023/04/09 15:18:04;;;;;;;2.17;1.98;;;;;;;;;;10151261;28;20047;-64
2023/04/09 15:22:57;;;;;;;2.60;2.15;;;;;;;;;;10151033;28;20056;-63
2023/04/09 15:27:51;;;;;;;2.38;2.17;;;;;;;;;;10150764;28;20059;-64
2023/04/09 15:32:44;;;;;;;2.20;2.10;;;;;;;;;;10150536;28;20060;-63
2023/04/09 15:37:38;;;;;;;5.18;2.10;;;;;;;;;;10158412;28;20047;-63
2023/04/09 15:42:31;;;;;;;4.00;2.55;;;;;;;;;;10153572;28;20078;-63
2023/04/09 15:47:25;;;;;;;4.55;2.30;;;;;;;;;;10150150;28;20102;-63
2023/04/09 15:52:19;;;;;;;3.35;1.92;;;;;;;;;;10149980;28;20056;-63
2023/04/09 15:57:13;;;;;;;1.92;1.75;;;;;;;;;;10149525;28;20743;-63
2023/04/09 16:02:07;;;;;;;2.67;2.17;;;;;;;;;;10149769;28;20060;-63
2023/04/09 16:07:01;;;;;;;2.17;1.92;;;;;;;;;;10149141;28;20045;-63
2023/04/09 16:11:54;;;;;;;2.13;1.92;;;;;;;;;;10149243;28;20052;-62
2023/04/09 16:16:48;;;;;;;2.13;1.98;;;;;;;;;;10145770;28;20497;-61
2023/04/09 16:21:43;;;;;;;3.83;2.33;;;;;;;;;;10148826;28;20046;-62
2023/04/09 16:26:36;;;;;;;3.47;2.22;;;;;;;;;;10148123;28;20090;-61
2023/04/09 16:31:29;;;;;;;4.72;2.90;;;;;;;;;;10148211;28;20431;-62
2023/04/09 16:36:23;;;;;;;5.80;3.30;;;;;;;;;;10148094;28;20489;-63
2023/04/09 16:41:16;;;;;;;4.13;2.80;;;;;;;;;;10147836;28;20036;-62
2023/04/09 16:46:09;;;;;;;2.50;1.75;;;;;;;;;;10147524;28;20500;-63
2023/04/09 16:51:04;;;;;;;2.25;1.80;;;;;;;;;;10147679;28;20428;-62
2023/04/09 16:55:57;;;;;;;3.13;2.17;;;;;;;;;;10129681;28;20045;-63
2023/04/09 17:00:50;;;;;;;2.20;2.00;;;;;;;;;;10147915;28;20386;-63
2023/04/09 17:05:47;;;;;;;4.60;2.22;;;;;;;;;;10147166;28;20060;-63
2023/04/09 17:10:41;;;;;;;1.88;1.77;;;;;;;;;;10131393;28;20193;-63
2023/04/09 17:15:34;;;;;;;3.63;1.70;;;;;;;;;;10147005;28;20062;-63
2023/04/09 17:20:28;;;;;;;5.20;1.90;;;;;;;;;;10146794;28;20071;-63
2023/04/09 17:25:21;;;;;;;2.88;1.73;;;;;;;;;;10129335;28;20125;-63
2023/04/09 17:30:15;;;;;;;2.25;2.05;;;;;;;;;;10146420;28;20048;-63
2023/04/09 17:35:09;;;;;;;2.67;1.58;;;;;;;;;;10145925;28;20472;-63
2023/04/09 17:40:02;;;;;;;2.30;2.00;;;;;;;;;;10146113;28;20512;-63
2023/04/09 17:44:55;;;;;;;2.17;1.83;;;;;;;;;;10144580;28;20417;-63
2023/04/09 17:49:48;;;;;;;2.90;1.92;;;;;;;;;;10137908;28;20095;-63
2023/04/09 17:54:43;;;;;;;2.70;1.80;;;;;;;;;;10142222;28;20053;-63
2023/04/09 17:59:38;;;;;;;2.35;2.00;;;;;;;;;;10145023;28;20052;-63
2023/04/09 18:04:34;;;;;;;6.20;3.50;;;;;;;;;;10144026;28;20051;-63
2023/04/09 18:09:30;;;;;;;2.42;2.17;;;;;;;;;;10140183;28;20081;-63
2023/04/09 18:14:24;;;;;;;4.05;3.13;;;;;;;;;;10145608;28;20052;-63
2023/04/09 18:19:16;;;;;;;3.35;2.60;;;;;;;;;;10144553;28;20490;-66
2023/04/09 18:24:09;;;;;;;4.65;2.47;;;;;;;;;;10145160;28;20091;-66
2023/04/09 18:29:03;;;;;;;4.22;2.42;;;;;;;;;;10143455;28;20048;-65
2023/04/09 18:33:57;;;;;;;2.55;2.05;;;;;;;;;;10145201;28;20490;-66
2023/04/09 18:38:49;;;;;;;7.22;2.95;;;;;;;;;;10134353;28;20064;-66
2023/04/09 18:43:43;;;;;;;2.88;2.58;;;;;;;;;;10142836;28;20075;-65
2023/04/09 18:48:36;;;;;;;5.95;3.15;;;;;;;;;;10134025;28;20068;-65
2023/04/09 18:53:30;;;;;;;6.75;4.75;;;;;;;;;;10131885;28;20060;-65
2023/04/09 18:58:23;;;;;;;6.35;3.38;;;;;;;;;;10131360;28;20044;-63
2023/04/09 19:03:17;;;;;;;5.22;3.90;;;;;;;;;;10131475;28;20170;-66
2023/04/09 19:08:11;;;;;;;12.20;5.65;;;;;;;;;;10130916;28;20565;-65
2023/04/09 19:13:05;;;;;;;7.85;5.32;;;;;;;;;;10139660;28;20040;-66
2023/04/09 19:17:58;;;;;;;7.05;5.15;;;;;;;;;;10138679;28;20047;-66
2023/04/09 19:22:53;;;;;;;11.63;7.13;;;;;;;;;;10137449;28;20465;-66
2023/04/09 19:27:46;;;;;;;4.22;3.60;;;;;;;;;;10134983;28;20493;-64
2023/04/09 19:32:40;;;;;;;3.60;3.30;;;;;;;;;;10129068;28;21788;-64
2023/04/09 19:37:33;;;;;;;4.03;3.60;;;;;;;;;;10141600;28;20076;-64
2023/04/09 19:42:27;;;;;;;11.02;3.45;;;;;;;;;;10139707;28;20067;-65
2023/04/09 19:47:20;;;;;;;5.97;3.47;;;;;;;;;;10133719;28;20667;-65
2023/04/09 19:52:14;;;;;;;4.32;3.33;;;;;;;;;;10130726;28;20044;-66
2023/04/09 19:57:07;;;;;;;3.55;3.22;;;;;;;;;;10137429;28;20455;-65
2023/04/09 20:02:01;;;;;;;5.60;3.35;;;;;;;;;;10130812;28;20037;-69
2023/04/09 20:06:56;;;;;;;4.05;3.08;;;;;;;;;;10130287;28;20040;-66
2023/04/09 20:11:52;;;;;;;4.05;3.65;;;;;;;;;;10127487;28;20123;-66
2023/04/09 20:16:46;;;;;;;3.83;2.88;;;;;;;;;;10127844;28;20036;-65
2023/04/09 20:21:39;;;;;;;3.92;3.28;;;;;;;;;;10126865;28;20128;-64
2023/04/09 20:26:31;;;;;;;5.25;3.10;;;;;;;;;;10129716;28;20498;-65
2023/04/09 20:31:26;;;;;;;3.38;3.08;;;;;;;;;;10125317;28;20049;-65
2023/04/09 20:36:20;;;;;;;3.78;3.38;;;;;;;;;;10122258;28;20548;-66
2023/04/09 20:41:13;;;;;;;6.70;4.55;;;;;;;;;;10122925;28;20042;-65
2023/04/09 20:46:06;;;;;;;5.25;4.63;;;;;;;;;;10118428;28;20056;-66
2023/04/09 20:51:02;;;;;;;4.38;3.50;;;;;;;;;;10126342;28;20037;-65
2023/04/09 20:55:57;;;;;;;7.32;3.65;;;;;;;;;;10138725;28;20057;-65
2023/04/09 21:00:51;;;;;;;4.10;3.60;;;;;;;;;;10136938;28;20055;-65
2023/04/09 21:05:44;;;;;;;5.93;4.18;;;;;;;;;;10137572;28;20055;-66
2023/04/09 21:10:37;;;;;;;5.20;3.95;;;;;;;;;;10139918;28;20052;-65
2023/04/09 21:15:31;;;;;;;5.43;3.97;;;;;;;;;;10138304;28;20052;-65
2023/04/09 21:20:25;;;;;;;4.32;3.80;;;;;;;;;;10130959;28;20144;-64
2023/04/09 21:25:18;;;;;;;4.32;3.83;;;;;;;;;;10126629;28;20041;-64
2023/04/09 21:30:12;;;;;;;6.30;4.00;;;;;;;;;;10128778;28;20469;-65
2023/04/09 21:35:07;;;;;;;4.75;3.92;;;;;;;;;;10134997;28;20093;-64
2023/04/09 21:40:00;;;;;;;4.88;4.38;;;;;;;;;;10126493;28;20779;-64
2023/04/09 21:44:53;;;;;;;6.13;3.65;;;;;;;;;;10131627;28;20135;-64
2023/04/09 21:49:48;;;;;;;4.00;3.33;;;;;;;;;;10130679;28;20122;-64
2023/04/09 21:54:43;;;;;;;5.03;3.88;;;;;;;;;;10107785;28;20083;-64
2023/04/09 21:59:36;;;;;;;4.47;3.72;;;;;;;;;;10131110;28;20052;-64
2023/04/09 22:04:30;;;;;;;3.85;3.47;;;;;;;;;;10140524;28;20079;-64
2023/04/09 22:09:24;;;;;;;3.70;3.40;;;;;;;;;;10118633;28;20188;-63
2023/04/09 22:14:18;;;;;;;3.50;3.10;;;;;;;;;;10136214;28;20060;-64
2023/04/09 22:19:14;;;;;;;8.50;4.75;;;;;;;;;;10132134;28;20045;-64
2023/04/09 22:24:08;;;;;;;4.45;4.05;;;;;;;;;;10120998;28;20040;-64
2023/04/09 22:29:02;;;;;;;4.32;3.80;;;;;;;;;;10128317;28;20451;-64
2023/04/09 22:33:59;;;;;;;3.78;3.45;;;;;;;;;;10134164;28;20398;-64
2023/04/09 22:39:08;;;;;;;4.00;3.35;;;;;;;;;;10130369;28;20386;-64
2023/04/09 22:44:02;;;;;;;5.20;3.75;;;;;;;;;;10134002;28;20429;-63
2023/04/09 22:48:55;;;;;;;5.38;4.20;;;;;;;;;;10131985;28;20060;-66
2023/04/09 22:53:57;;;;;;;4.00;3.67;;;;;;;;;;10137989;28;20044;-64
2023/04/09 22:58:50;;;;;;;3.22;2.92;;;;;;;;;;10137330;28;20072;-64
2023/04/09 23:03:44;;;;;;;7.63;3.45;;;;;;;;;;10137583;28;20424;-64
2023/04/09 23:08:38;;;;;;;6.53;3.80;;;;;;;;;;10144414;28;20461;-64
2023/04/09 23:13:33;;;;;;;4.45;3.38;;;;;;;;;;10144110;28;20045;-64
2023/04/09 23:18:26;;;;;;;3.80;3.50;;;;;;;;;;10143624;28;20131;-64
2023/04/09 23:23:20;;;;;;;5.85;3.20;;;;;;;;;;10144607;28;20048;-64
2023/04/09 23:28:13;;;;;;;4.75;3.22;;;;;;;;;;10150424;28;20082;-64
2023/04/09 23:33:07;;;;;;;3.42;3.13;;;;;;;;;;10148064;28;20485;-65
2023/04/09 23:38:01;;;;;;;3.40;3.10;;;;;;;;;;10151316;28;20044;-64
2023/04/09 23:42:54;;;;;;;3.40;3.03;;;;;;;;;;10150096;28;20473;-64
2023/04/09 23:47:48;;;;;;;4.47;3.15;;;;;;;;;;10149777;28;20394;-64
2023/04/09 23:52:46;;;;;;;5.13;3.35;;;;;;;;;;10146330;28;20094;-64
2023/04/09 23:57:39;;;;;;;4.25;2.80;;;;;;;;;;10149451;28;20048;-64
